Impacts METAR Board
IDs:

KBAZ - New Braunfels Muni, TX, US

Updated at: 0800 UTC 13 Aug 2022
Potential Impact None Slight Moderate High
Time 12/20Z 12/21Z 12/22Z 12/23Z 13/00Z 13/01Z 13/02Z 13/03Z 13/04Z 13/05Z 13/06Z 13/07Z 13/08Z
Temp96 99 99 100 93 89 87 85 84 83 81 80 78
Dewpt67 67 65 64 70 71 71 71 71 73 74 72 71
Altim29.93 29.92 29.90 29.90 29.89 29.91 29.94 29.96 29.98 29.97 29.98 29.98 29.98
VIS10 10 10 10 10 10 10 10 10 10 10 10 10
CIG70 -- -- -- -- -- 80 -- 85 -- -- -- --
CoverBKNFEWSCTFEWCLRCLRBKNCLRBKNFEWCLRCLRCLR
FltCatVFRVFRVFRVFRVFRVFRVFRVFRVFRVFRVFRVFRVFR
WX--------------------------
WDir80808080120140140140160170170700
WSpd14 9 7 13 15 12 7 9 5 3 3 3 0
WGst19 17 17 20 -- -- -- -- -- -- -- -- --
Raw hourly METARs
KBAZ 121951Z 08014G19KT 10SM BKN070 BKN090 BKN110 36/19 A2993 RMK AO2 LTG DSNT SW SLP125 T03560194
KBAZ 122051Z 08009G17KT 10SM FEW065 37/19 A2992 RMK AO2 SLP119 T03720194 56019
KBAZ 122151Z 08007G17KT 10SM FEW070 SCT095 37/18 A2990 RMK AO2 SLP113 T03720183
KBAZ 122251Z 08013G20KT 10SM FEW080 38/18 A2990 RMK AO2 SLP112 T03780178
KBAZ 122351Z AUTO 12015KT 10SM CLR 34/21 A2989 RMK AO2 SLP113 T03390211 10389 20339 56007
KBAZ 130051Z AUTO 14012KT 10SM CLR 32/22 A2991 RMK AO2 SLP118 T03170217
KBAZ 130151Z AUTO 14007KT 10SM BKN080 31/22 A2994 RMK AO2 SLP128 T03060217
KBAZ 130251Z AUTO 14009KT 10SM CLR 29/22 A2996 RMK AO2 SLP135 T02940217 53022
KBAZ 130351Z AUTO 16005KT 10SM BKN085 29/22 A2998 RMK AO2 SLP140 T02890217
KBAZ 130451Z AUTO 17003KT 10SM FEW095 FEW120 28/23 A2997 RMK AO2 SLP139 T02830228 403890228
KBAZ 130551Z AUTO 17003KT 10SM CLR 27/23 A2998 RMK AO2 SLP140 T02720233 10339 20272 51006
KBAZ 130651Z AUTO 07003KT 10SM CLR 27/22 A2998 RMK AO2 SLP142 T02670222
KBAZ 130751Z AUTO 00000KT 10SM CLR 26/22 A2998 RMK AO2 SLP142 T02560217